KGUP/GUP METAR and TAF weather

Enter ICAO airport designator
Station Type Date Time Source
KGUP METAR 2019/04/18 09:53 UTC NOAA

KGUP 180953Z AUTO 19003KT 10SM CLR 00/M03 A3016 RMK AO2 SLP164 T00001028


Station Type Date Time Source
KGUP Decoded METAR 2019/04/18 09:53 UTC NOAA

GALLUP MUNICIPAL AIRPORT, NM, United States (KGUP) 35-31N 108-47W 1971M
Apr 18, 2019 - 05:53 AM EDT / 2019.04.18 0953 UTC
Wind: from the S (190 degrees) at 3 MPH (3 KT):0
Visibility: 10 mile(s):0
Sky conditions: clear
Temperature: 32.0 F (0.0 C)
Dew Point: 27.0 F (-2.8 C)
Relative Humidity: 81%
Pressure (altimeter): 30.16 in. Hg (1021 hPa)
ob: KGUP 180953Z AUTO 19003KT 10SM CLR 00/M03 A3016 RMK AO2 SLP164 T00001028
cycle: 10

Station Type Date Time Source
KGUP TAF 2019/04/18 06:28 UTC NOAA

TAF KGUP 180526Z 1806/1906 28007KT P6SM FEW070
FM181500 32007KT P6SM SKC
FM182000 34013KT P6SM SCT250
FM190200 33006KT P6SM SCT250

Example: see airport list